createdAt,value
2019-03-29T00:00:59.372Z,96.00
2019-03-29T00:03:29.677Z,97.53
2019-03-29T00:05:58.894Z,103.87
2019-03-29T00:08:28.302Z,111.47
2019-03-29T00:10:57.799Z,107.23
2019-03-29T00:13:28.994Z,103.57
2019-03-29T00:15:58.490Z,109.87
2019-03-29T00:18:29.661Z,116.53
2019-03-29T00:20:59.147Z,108.33
2019-03-29T00:23:28.623Z,109.57
2019-03-29T00:25:58.323Z,104.70
2019-03-29T00:28:29.009Z,114.03
2019-03-29T00:30:58.421Z,104.90
2019-03-29T00:33:27.862Z,105.73
2019-03-29T00:35:57.422Z,106.57
2019-03-29T00:38:26.879Z,102.33
2019-03-29T00:40:57.176Z,95.13
2019-03-29T00:43:26.389Z,100.00
2019-03-29T00:45:55.633Z,100.70
2019-03-29T00:48:24.923Z,99.70
2019-03-29T00:50:56.948Z,103.97
2019-03-29T00:53:28.407Z,101.17
2019-03-29T00:55:57.658Z,95.10
2019-03-29T00:58:27.047Z,93.07
2019-03-29T01:00:56.693Z,98.93
2019-03-29T01:03:26.033Z,101.23
2019-03-29T01:05:55.638Z,101.03
2019-03-29T01:08:25.050Z,104.03
2019-03-29T01:16:24.689Z,106.17
2019-03-29T01:18:57.319Z,104.47
2019-03-29T01:21:26.582Z,107.83
2019-03-29T01:23:56.463Z,111.37
2019-03-29T01:26:26.422Z,115.60
2019-03-29T01:28:56.817Z,102.57
2019-03-29T01:31:26.026Z,111.60
2019-03-29T01:33:56.554Z,106.53
2019-03-29T01:36:25.717Z,112.10
2019-03-29T01:38:55.141Z,115.07
2019-03-29T01:41:24.304Z,118.57
2019-03-29T01:43:53.680Z,125.13
2019-03-29T01:46:22.874Z,112.07
2019-03-29T01:48:52.290Z,114.30
2019-03-29T01:51:21.539Z,121.77
2019-03-29T01:53:53.058Z,131.97
2019-03-29T01:56:22.433Z,123.23
2019-03-29T01:58:51.927Z,122.33
2019-03-29T02:01:21.135Z,124.93
2019-03-29T02:03:50.577Z,128.20
2019-03-29T02:06:20.189Z,127.33
2019-03-29T02:08:49.599Z,133.37
2019-03-29T02:11:19.066Z,129.20
2019-03-29T02:13:49.947Z,141.40
2019-03-29T02:16:19.329Z,148.97
2019-03-29T02:18:48.808Z,144.23
2019-03-29T02:21:18.534Z,139.60
2019-03-29T02:23:47.751Z,142.20
2019-03-29T02:26:16.914Z,144.95
2019-03-29T02:28:46.413Z,127.00
2019-03-29T02:31:15.760Z,130.17
2019-03-29T02:33:45.017Z,132.00
2019-03-29T02:36:14.170Z,128.37
2019-03-29T02:38:55.102Z,128.40
2019-03-29T02:41:14.774Z,132.63
2019-03-29T02:43:43.950Z,133.27
2019-03-29T02:46:13.410Z,126.07
2019-03-29T02:48:44.551Z,126.13
2019-03-29T02:51:14.009Z,119.83
2019-03-29T02:53:43.209Z,128.77
2019-03-29T02:56:12.739Z,131.27
2019-03-29T02:58:42.137Z,138.73
2019-03-29T03:01:12.470Z,125.80
2019-03-29T03:03:41.959Z,122.63
2019-03-29T03:06:11.187Z,131.47
2019-03-29T03:08:40.624Z,135.53
2019-03-29T03:11:10.305Z,125.10
2019-03-29T03:13:39.562Z,130.23
2019-03-29T03:16:08.783Z,116.13
2019-03-29T03:18:37.934Z,119.50
2019-03-29T03:21:07.308Z,124.20
2019-03-29T03:23:36.804Z,121.23
2019-03-29T03:26:06.284Z,114.63
2019-03-29T03:28:35.452Z,124.57
2019-03-29T03:31:04.981Z,121.93
2019-03-29T03:33:34.387Z,127.57
2019-03-29T03:36:03.898Z,122.13
2019-03-29T03:38:33.419Z,118.70
2019-03-29T03:41:02.904Z,122.17
2019-03-29T03:43:32.062Z,118.17
2019-03-29T03:46:01.548Z,126.60
2019-03-29T03:48:30.998Z,133.87
2019-03-29T03:51:00.309Z,128.40
2019-03-29T03:53:31.286Z,131.67
2019-03-29T03:56:02.000Z,125.83
2019-03-29T03:58:32.341Z,138.17
2019-03-29T04:01:01.844Z,127.63
2019-03-29T04:03:31.316Z,138.97
2019-03-29T04:06:00.481Z,130.90
2019-03-29T04:08:29.979Z,135.30
2019-03-29T04:10:59.431Z,135.03
2019-03-29T04:13:28.930Z,128.50
2019-03-29T04:15:58.556Z,137.97
2019-03-29T04:18:27.967Z,139.43
2019-03-29T04:20:57.517Z,145.40
2019-03-29T04:23:26.785Z,143.03
2019-03-29T04:25:56.183Z,141.50
2019-03-29T04:28:25.551Z,142.10
2019-03-29T04:30:54.746Z,148.17
2019-03-29T04:33:24.162Z,149.87
2019-03-29T04:35:53.722Z,146.20
2019-03-29T04:38:23.283Z,144.07
2019-03-29T04:40:52.664Z,141.33
2019-03-29T04:43:21.817Z,153.70
2019-03-29T04:45:51.319Z,145.73
2019-03-29T04:48:20.777Z,140.93
2019-03-29T04:50:49.929Z,148.20
2019-03-29T04:53:19.420Z,143.50
2019-03-29T04:55:48.875Z,156.33
2019-03-29T04:58:18.036Z,135.37
2019-03-29T05:00:47.541Z,137.43
2019-03-29T05:03:16.998Z,134.00
2019-03-29T05:05:46.701Z,128.23
2019-03-29T05:08:16.055Z,132.63
2019-03-29T05:10:45.533Z,125.37
2019-03-29T05:13:15.011Z,129.37
2019-03-29T05:15:44.223Z,134.67
2019-03-29T05:18:13.681Z,137.47
2019-03-29T05:20:42.844Z,125.87
2019-03-29T05:23:13.090Z,121.50
2019-03-29T05:25:42.540Z,118.33
2019-03-29T05:28:12.876Z,119.47
2019-03-29T05:30:42.413Z,119.07
2019-03-29T05:33:12.109Z,121.07
2019-03-29T05:35:41.383Z,117.03
2019-03-29T05:38:10.668Z,112.17
2019-03-29T05:40:39.983Z,112.00
2019-03-29T05:43:09.486Z,111.97
2019-03-29T05:45:38.675Z,112.77
2019-03-29T05:48:08.181Z,114.53
2019-03-29T05:50:37.595Z,102.23
2019-03-29T05:53:06.801Z,96.90
2019-03-29T05:55:36.188Z,104.73
2019-03-29T05:58:05.345Z,102.00
2019-03-29T06:00:34.835Z,106.03
2019-03-29T06:03:04.303Z,105.03
2019-03-29T06:05:33.473Z,100.87
2019-03-29T06:08:02.959Z,98.30
2019-03-29T06:10:32.556Z,103.67
2019-03-29T06:13:01.943Z,102.73
2019-03-29T06:15:31.463Z,108.20
2019-03-29T06:18:00.906Z,98.50
2019-03-29T06:20:30.172Z,98.37
2019-03-29T06:22:59.581Z,102.07
2019-03-29T06:25:29.048Z,93.50
2019-03-29T06:27:58.820Z,91.67
2019-03-29T06:30:32.612Z,96.73
2019-03-29T06:33:02.419Z,86.40
2019-03-29T06:35:34.405Z,71.30
2019-03-29T06:38:04.311Z,79.57
2019-03-29T06:40:34.947Z,67.33
2019-03-29T06:43:04.236Z,71.17
2019-03-29T06:45:46.856Z,65.63
2019-03-29T06:48:04.895Z,71.57
2019-03-29T06:50:34.394Z,59.80
2019-03-29T06:53:03.866Z,54.23
2019-03-29T06:55:33.334Z,56.50
2019-03-29T06:58:02.581Z,42.80
2019-03-29T07:00:31.973Z,48.00
2019-03-29T07:03:01.444Z,39.33
2019-03-29T07:05:30.601Z,37.47
2019-03-29T07:08:00.153Z,45.20
2019-03-29T07:10:29.534Z,38.07
2019-03-29T07:12:58.926Z,42.50
2019-03-29T07:15:28.202Z,37.27
2019-03-29T07:17:57.642Z,42.50
2019-03-29T07:20:26.811Z,39.10
2019-03-29T07:22:56.299Z,40.90
2019-03-29T07:25:25.760Z,40.33
2019-03-29T07:27:55.256Z,40.67
2019-03-29T07:30:24.455Z,41.27
2019-03-29T07:32:53.864Z,40.93
2019-03-29T07:35:23.018Z,35.17
2019-03-29T07:37:52.526Z,38.00
2019-03-29T07:40:21.964Z,30.90
2019-03-29T07:42:51.128Z,27.43
2019-03-29T07:45:20.625Z,28.67
2019-03-29T07:47:50.091Z,28.70
2019-03-29T07:50:19.417Z,24.50
2019-03-29T07:52:48.788Z,31.33
2019-03-29T07:55:18.178Z,26.37
2019-03-29T07:57:47.334Z,34.13
2019-03-29T08:00:20.215Z,30.93
2019-03-29T08:02:47.945Z,34.90
2019-03-29T08:05:17.897Z,32.63
2019-03-29T08:07:47.822Z,28.33
2019-03-29T08:10:25.942Z,34.07
2019-03-29T08:12:49.257Z,30.93
2019-03-29T08:15:19.186Z,26.83
2019-03-29T08:17:48.721Z,27.40
2019-03-29T08:20:39.325Z,35.00
2019-03-29T08:22:49.874Z,28.20
2019-03-29T08:25:19.209Z,29.90
2019-03-29T08:27:48.364Z,26.97
2019-03-29T08:30:17.993Z,31.67
2019-03-29T08:32:48.141Z,34.10
2019-03-29T08:35:17.388Z,29.40
2019-03-29T08:37:46.784Z,27.67
2019-03-29T08:40:16.306Z,35.07
2019-03-29T08:42:45.746Z,26.40
2019-03-29T08:45:15.442Z,27.37
2019-03-29T08:47:44.759Z,30.47
2019-03-29T08:50:14.092Z,28.63
2019-03-29T08:52:43.395Z,25.67
2019-03-29T08:55:12.931Z,27.97
2019-03-29T08:57:42.379Z,27.77
2019-03-29T09:00:15.662Z,30.47
2019-03-29T09:02:43.430Z,32.03
2019-03-29T09:05:12.656Z,29.40
2019-03-29T09:07:44.981Z,32.33
2019-03-29T09:10:16.256Z,28.57
2019-03-29T09:12:45.545Z,29.53
2019-03-29T09:15:14.744Z,31.60
2019-03-29T09:17:44.156Z,25.57
2019-03-29T09:20:13.457Z,29.30
2019-03-29T09:22:43.071Z,29.17
2019-03-29T09:25:12.659Z,34.30
2019-03-29T09:27:41.904Z,30.90
2019-03-29T09:30:11.170Z,24.03
2019-03-29T09:32:40.331Z,31.00
2019-03-29T09:35:10.060Z,32.00
2019-03-29T09:37:39.258Z,26.03
2019-03-29T09:40:08.935Z,25.13
2019-03-29T09:42:38.146Z,29.37
2019-03-29T09:45:08.909Z,27.80
2019-03-29T09:47:40.519Z,31.13
2019-03-29T09:50:10.553Z,24.47
2019-03-29T09:52:40.305Z,22.80
2019-03-29T09:55:10.440Z,23.23
2019-03-29T09:57:39.593Z,22.83
2019-03-29T10:00:19.114Z,23.10
2019-03-29T10:02:41.801Z,22.53
2019-03-29T10:05:12.637Z,19.67
2019-03-29T10:07:42.099Z,17.40
2019-03-29T10:10:11.600Z,25.03
2019-03-29T10:12:43.688Z,19.87
2019-03-29T10:15:12.087Z,22.53
2019-03-29T10:18:00.651Z,19.13
2019-03-29T10:20:29.872Z,23.60
2019-03-29T10:22:59.097Z,19.87
2019-03-29T10:25:28.259Z,29.00
2019-03-29T10:28:00.748Z,26.57
2019-03-29T10:30:38.771Z,22.90
2019-03-29T10:33:08.351Z,16.03
2019-03-29T10:35:50.597Z,21.97
2019-03-29T10:38:09.639Z,18.93
2019-03-29T10:40:38.982Z,17.27
2019-03-29T10:43:08.429Z,21.57
2019-03-29T10:45:40.345Z,21.23
2019-03-29T10:48:08.587Z,17.77
2019-03-29T10:50:38.061Z,15.97
2019-03-29T10:53:07.570Z,17.63
2019-03-29T10:55:36.793Z,15.83
2019-03-29T10:58:09.532Z,21.27
2019-03-29T11:00:39.402Z,16.47
2019-03-29T11:03:08.987Z,23.17
2019-03-29T11:05:38.429Z,20.87
2019-03-29T11:08:11.312Z,18.53
2019-03-29T11:10:40.317Z,18.60
2019-03-29T11:13:14.317Z,21.67
2019-03-29T11:15:40.942Z,19.20
2019-03-29T11:18:11.482Z,18.30
2019-03-29T11:20:40.833Z,19.47
2019-03-29T11:23:10.344Z,19.73
2019-03-29T11:25:39.619Z,26.57
2019-03-29T11:28:08.888Z,19.83
2019-03-29T11:30:42.663Z,18.57
2019-03-29T11:33:09.879Z,19.40
2019-03-29T11:35:39.033Z,21.43
2019-03-29T11:38:08.485Z,20.70
2019-03-29T11:40:37.694Z,21.23
2019-03-29T11:43:07.228Z,19.47
2019-03-29T11:45:36.600Z,22.23
2019-03-29T11:48:08.840Z,26.63
2019-03-29T11:50:38.058Z,23.93
2019-03-29T11:53:07.221Z,23.50
2019-03-29T11:55:36.710Z,20.87
2019-03-29T11:58:06.042Z,27.43
2019-03-29T12:00:37.309Z,21.40
2019-03-29T12:03:09.115Z,19.03
2019-03-29T12:05:38.098Z,21.10
2019-03-29T12:08:07.528Z,22.77
2019-03-29T12:10:37.095Z,20.07
2019-03-29T12:13:08.961Z,18.17
2019-03-29T12:15:39.175Z,20.20
2019-03-29T12:18:08.460Z,19.80
2019-03-29T12:20:37.962Z,25.50
2019-03-29T12:23:07.622Z,17.87
2019-03-29T12:25:36.891Z,20.07
2019-03-29T12:28:06.633Z,21.43
2019-03-29T12:30:35.870Z,24.03
2019-03-29T12:33:05.144Z,25.03
2019-03-29T12:35:34.543Z,20.70
2019-03-29T12:38:04.129Z,24.20
2019-03-29T12:40:33.532Z,24.10
2019-03-29T12:43:02.771Z,21.17
2019-03-29T12:45:32.240Z,28.23
2019-03-29T12:48:01.625Z,27.87
2019-03-29T12:50:31.095Z,25.50
2019-03-29T12:53:00.253Z,20.23
2019-03-29T12:55:29.760Z,20.90
2019-03-29T12:57:59.211Z,20.53
2019-03-29T13:00:28.440Z,22.57
2019-03-29T13:02:57.835Z,21.70
2019-03-29T13:05:27.403Z,23.90
2019-03-29T13:07:56.813Z,28.60
2019-03-29T13:10:26.401Z,23.07
2019-03-29T13:12:55.821Z,18.80
2019-03-29T13:15:24.991Z,33.23
2019-03-29T13:17:54.470Z,22.20
2019-03-29T13:20:23.932Z,21.90
2019-03-29T13:22:53.103Z,24.83
2019-03-29T13:25:23.005Z,19.03
2019-03-29T13:27:55.424Z,20.03
2019-03-29T13:30:23.599Z,23.63
2019-03-29T13:32:53.022Z,21.27
2019-03-29T13:35:22.347Z,17.80
2019-03-29T13:37:51.693Z,17.70
2019-03-29T13:40:21.468Z,19.60
2019-03-29T13:42:51.129Z,20.73
2019-03-29T13:45:20.281Z,22.20
2019-03-29T13:47:49.760Z,16.33
2019-03-29T13:50:19.231Z,17.93
2019-03-29T13:52:48.385Z,14.87
2019-03-29T13:55:17.602Z,18.57
2019-03-29T13:57:46.934Z,16.60
2019-03-29T14:00:18.021Z,15.80
2019-03-29T14:02:47.215Z,15.23
2019-03-29T14:05:16.665Z,15.60
2019-03-29T14:07:45.913Z,14.30
2019-03-29T14:10:15.766Z,15.13
2019-03-29T14:12:45.191Z,16.30
2019-03-29T14:15:15.900Z,20.13
2019-03-29T14:17:45.758Z,19.83
2019-03-29T14:20:17.997Z,22.30
2019-03-29T14:22:47.311Z,23.97
2019-03-29T14:25:16.500Z,29.90
2019-03-29T14:27:45.940Z,38.63
2019-03-29T14:30:15.674Z,40.13
2019-03-29T14:32:44.963Z,40.23
2019-03-29T14:35:14.691Z,38.50
2019-03-29T14:37:43.939Z,22.00
2019-03-29T14:40:13.400Z,25.33
2019-03-29T14:42:42.616Z,29.47
2019-03-29T14:45:12.926Z,34.17
2019-03-29T14:47:43.809Z,25.50
2019-03-29T14:50:13.777Z,20.47
2019-03-29T14:52:43.016Z,18.53
2019-03-29T14:55:12.553Z,20.57
2019-03-29T14:57:42.009Z,17.53
2019-03-29T15:00:12.799Z,23.87
2019-03-29T15:02:42.385Z,20.57
2019-03-29T15:05:12.511Z,17.77
2019-03-29T15:07:42.415Z,18.53
2019-03-29T15:10:26.349Z,17.50
2019-03-29T15:12:56.907Z,19.23
2019-03-29T15:15:26.175Z,15.60
2019-03-29T15:17:55.451Z,17.67
2019-03-29T15:20:24.850Z,20.23
2019-03-29T15:22:54.005Z,18.23
2019-03-29T15:25:23.433Z,21.20
2019-03-29T15:27:52.873Z,22.07
2019-03-29T15:30:22.108Z,21.47
2019-03-29T15:32:51.588Z,20.90
2019-03-29T15:35:21.123Z,21.03
2019-03-29T15:37:51.051Z,19.37
2019-03-29T15:40:20.520Z,18.83
2019-03-29T15:42:50.085Z,19.53
2019-03-29T15:45:20.997Z,18.43
2019-03-29T15:47:50.622Z,17.83
2019-03-29T15:50:20.139Z,19.30
2019-03-29T15:52:49.573Z,18.30
2019-03-29T15:55:19.951Z,18.40
2019-03-29T15:57:49.393Z,21.37
2019-03-29T16:00:18.725Z,18.50
2019-03-29T16:02:48.042Z,19.27
2019-03-29T16:05:17.518Z,21.57
2019-03-29T16:07:46.675Z,25.17
2019-03-29T16:10:16.150Z,30.60
2019-03-29T16:12:45.625Z,23.97
2019-03-29T16:15:15.124Z,20.50
2019-03-29T16:17:44.328Z,20.97
2019-03-29T16:20:13.731Z,22.50
2019-03-29T16:22:43.235Z,22.03
2019-03-29T16:25:13.724Z,17.10
2019-03-29T16:27:43.051Z,17.87
2019-03-29T16:30:13.804Z,18.03
2019-03-29T16:32:43.374Z,26.70
2019-03-29T16:35:12.821Z,17.83
2019-03-29T16:37:42.331Z,16.23
2019-03-29T16:40:12.279Z,18.47
2019-03-29T16:42:41.734Z,16.10
2019-03-29T16:45:12.264Z,16.77
2019-03-29T16:47:41.600Z,18.87
2019-03-29T16:50:11.441Z,19.13
2019-03-29T16:52:40.616Z,23.27
2019-03-29T16:55:13.694Z,19.40
2019-03-29T16:57:43.125Z,17.97
2019-03-29T17:00:13.181Z,16.03
2019-03-29T17:02:45.621Z,18.70
2019-03-29T17:05:15.133Z,23.87
2019-03-29T17:07:44.634Z,23.30
2019-03-29T17:10:14.367Z,20.33
2019-03-29T17:12:44.811Z,20.17
2019-03-29T17:15:14.615Z,21.17
2019-03-29T17:17:43.860Z,31.20
2019-03-29T17:20:13.495Z,32.83
2019-03-29T17:22:43.487Z,36.73
2019-03-29T17:25:13.269Z,34.90
2019-03-29T17:27:42.653Z,36.83
2019-03-29T17:30:14.975Z,31.53
2019-03-29T17:32:44.183Z,25.97
2019-03-29T17:35:13.753Z,26.50
2019-03-29T17:37:43.153Z,26.47
2019-03-29T17:40:13.798Z,26.30
2019-03-29T17:42:43.014Z,26.77
2019-03-29T17:45:12.542Z,23.17
2019-03-29T17:47:42.034Z,29.83
2019-03-29T17:50:11.668Z,27.07
2019-03-29T17:52:40.992Z,25.47
2019-03-29T17:55:10.417Z,25.17
2019-03-29T17:57:39.993Z,27.17
2019-03-29T18:00:13.037Z,31.47
2019-03-29T18:02:42.325Z,33.03
2019-03-29T18:05:12.018Z,26.93
2019-03-29T18:07:41.303Z,30.77
2019-03-29T18:10:11.565Z,33.43
2019-03-29T18:12:41.960Z,31.47
2019-03-29T18:15:12.261Z,39.93
2019-03-29T18:17:41.479Z,31.43
2019-03-29T18:20:11.619Z,39.53
2019-03-29T18:22:40.832Z,33.10
2019-03-29T18:25:10.640Z,37.70
2019-03-29T18:27:39.826Z,35.50
2019-03-29T18:30:11.174Z,37.37
2019-03-29T18:32:40.454Z,32.27
2019-03-29T18:35:11.978Z,33.30
2019-03-29T18:37:41.906Z,35.33
2019-03-29T18:40:25.803Z,33.67
2019-03-29T18:42:56.111Z,41.10
2019-03-29T18:45:25.601Z,44.70
2019-03-29T18:47:55.096Z,41.03
2019-03-29T18:50:24.281Z,42.20
2019-03-29T18:52:53.699Z,42.57
2019-03-29T18:55:24.893Z,37.20
2019-03-29T18:57:54.406Z,38.20
2019-03-29T19:00:26.914Z,38.73
2019-03-29T19:02:56.217Z,35.73
2019-03-29T19:05:26.960Z,36.40
2019-03-29T19:07:56.201Z,40.63
2019-03-29T19:10:25.568Z,39.20
2019-03-29T19:12:54.844Z,41.50
2019-03-29T19:15:24.526Z,47.60
2019-03-29T19:17:53.692Z,49.10
2019-03-29T19:20:27.772Z,40.00
2019-03-29T19:22:54.378Z,39.80
2019-03-29T19:25:23.913Z,41.77
2019-03-29T19:27:53.249Z,35.50
2019-03-29T19:30:23.311Z,38.93
2019-03-29T19:32:52.764Z,41.47
2019-03-29T19:35:22.311Z,39.63
2019-03-29T19:37:51.755Z,36.03
2019-03-29T19:40:20.911Z,40.47
2019-03-29T19:42:50.420Z,37.57
2019-03-29T19:45:21.014Z,38.50
2019-03-29T19:47:50.237Z,41.00
2019-03-29T19:50:20.408Z,41.60
2019-03-29T19:52:49.623Z,40.70
2019-03-29T19:55:18.843Z,38.20
2019-03-29T19:57:48.295Z,39.07
2019-03-29T20:00:18.155Z,40.20
2019-03-29T20:02:47.306Z,36.77
2019-03-29T20:05:27.822Z,35.10
2019-03-29T20:07:57.559Z,43.23
2019-03-29T20:10:27.135Z,40.27
2019-03-29T20:12:57.585Z,38.57
2019-03-29T20:15:27.183Z,43.10
2019-03-29T20:17:56.615Z,38.77
2019-03-29T20:20:27.058Z,37.13
2019-03-29T20:22:57.974Z,38.97
2019-03-29T20:25:27.520Z,37.47
2019-03-29T20:27:58.614Z,45.40
2019-03-29T20:30:28.018Z,41.87
2019-03-29T20:32:57.288Z,45.30
2019-03-29T20:35:26.495Z,45.83
2019-03-29T20:37:55.871Z,48.33
2019-03-29T20:40:25.023Z,45.93
2019-03-29T20:42:54.519Z,44.67
2019-03-29T20:45:23.977Z,47.97
2019-03-29T20:47:53.123Z,42.50
2019-03-29T20:50:22.638Z,43.37
2019-03-29T20:52:52.083Z,47.67
2019-03-29T20:55:22.393Z,48.67
2019-03-29T20:57:51.598Z,42.60
2019-03-29T21:00:21.152Z,42.70
2019-03-29T21:02:50.511Z,47.90
2019-03-29T21:05:19.736Z,42.33
2019-03-29T21:07:49.108Z,46.33
2019-03-29T21:10:19.003Z,46.17
2019-03-29T21:12:48.251Z,41.57
2019-03-29T21:15:18.307Z,43.90
2019-03-29T21:17:56.533Z,50.87
2019-03-29T21:20:18.807Z,42.10
2019-03-29T21:22:48.542Z,44.67
2019-03-29T21:25:18.104Z,34.93
2019-03-29T21:27:47.315Z,40.13
2019-03-29T21:30:17.565Z,36.93
2019-03-29T21:32:47.031Z,39.07
2019-03-29T21:35:16.307Z,41.47
2019-03-29T21:37:45.629Z,37.77
2019-03-29T21:40:15.419Z,35.00
2019-03-29T21:42:45.085Z,37.17
2019-03-29T21:45:27.696Z,36.00
2019-03-29T21:47:45.707Z,38.83
2019-03-29T21:50:15.246Z,38.23
2019-03-29T21:52:44.775Z,36.13
2019-03-29T21:55:14.299Z,39.27
2019-03-29T21:57:43.758Z,37.37
2019-03-29T22:00:14.537Z,39.57
2019-03-29T22:02:43.972Z,41.60
2019-03-29T22:05:13.649Z,36.57
2019-03-29T22:07:42.972Z,38.83
2019-03-29T22:10:13.255Z,37.20
2019-03-29T22:12:43.262Z,38.60
2019-03-29T22:15:13.574Z,36.43
2019-03-29T22:17:43.060Z,36.60
2019-03-29T22:20:13.550Z,32.60
2019-03-29T22:22:42.877Z,38.97
2019-03-29T22:25:13.271Z,40.43
2019-03-29T22:27:42.453Z,38.47
2019-03-29T22:30:12.443Z,37.33
2019-03-29T22:32:42.572Z,35.63
2019-03-29T22:35:13.262Z,39.03
2019-03-29T22:37:42.418Z,42.13
2019-03-29T22:40:12.053Z,40.63
2019-03-29T22:42:41.435Z,39.90
2019-03-29T22:45:11.263Z,36.07
2019-03-29T22:47:40.421Z,37.63
2019-03-29T22:50:10.392Z,34.07
2019-03-29T22:52:40.622Z,41.53
2019-03-29T22:55:10.457Z,45.83
2019-03-29T22:57:40.905Z,41.07
2019-03-29T23:00:13.441Z,39.70
2019-03-29T23:02:42.878Z,39.20
2019-03-29T23:05:13.547Z,38.20
2019-03-29T23:07:42.978Z,38.20
2019-03-29T23:10:12.479Z,34.73
2019-03-29T23:12:41.791Z,38.23
2019-03-29T23:15:11.592Z,39.60
2019-03-29T23:17:41.001Z,34.17
2019-03-29T23:20:10.437Z,35.33
2019-03-29T23:22:39.617Z,40.27
2019-03-29T23:25:09.575Z,37.90
2019-03-29T23:27:39.117Z,40.70
2019-03-29T23:30:09.291Z,40.30
2019-03-29T23:32:38.571Z,39.23
2019-03-29T23:35:08.437Z,38.03
2019-03-29T23:37:37.931Z,41.23
2019-03-29T23:40:07.518Z,40.77
2019-03-29T23:42:36.911Z,41.27
2019-03-29T23:45:08.464Z,43.27
2019-03-29T23:47:37.618Z,41.77
2019-03-29T23:50:07.477Z,47.87
2019-03-29T23:52:36.967Z,41.67
2019-03-29T23:55:06.261Z,48.40
2019-03-29T23:57:35.611Z,46.77
